<?xml version='1.0' encoding='UTF-8'?>
<gpx xmlns="http://www.topografix.com/GPX/1/1" creator="www.balnam.be" version="1.1" xmlns:xsi="http://www.w3.org/2001/XMLSchema-instance" xsi:schemaLocation="http://www.topografix.com/GPX/1/1 http://www.topografix.com/GPX/1/1/gpx.xsd">
<trk>
<name>hezwd10</name>
<cmt>v</cmt>
<desc>Wodecq Chemin n°10 Vieux Moulins / Quatre Chemins / Long Chemin / Vert Marais / Lanterne / Trieu à Staques</desc>
<link href="https://chemins.be/wodecq/chemin/10"/><trkseg>
<trkpt lat="50.718796" lon="3.731945"><time>2026-05-02T18:14:31Z</time></trkpt>
<trkpt lat="50.718811" lon="3.731534"><time>2026-05-02T18:24:31Z</time></trkpt>
<trkpt lat="50.718800" lon="3.731081"><time>2026-05-02T18:34:31Z</time></trkpt>
<trkpt lat="50.718714" lon="3.730204"><time>2026-05-02T18:44:31Z</time></trkpt>
<trkpt lat="50.718711" lon="3.729637"><time>2026-05-02T18:54:31Z</time></trkpt>
<trkpt lat="50.719217" lon="3.728441"><time>2026-05-02T19:04:31Z</time></trkpt>
<trkpt lat="50.719257" lon="3.727506"><time>2026-05-02T19:14:31Z</time></trkpt>
<trkpt lat="50.719848" lon="3.725402"><time>2026-05-02T19:24:31Z</time></trkpt>
<trkpt lat="50.720097" lon="3.724917"><time>2026-05-02T19:34:31Z</time></trkpt>
<trkpt lat="50.720173" lon="3.724024"><time>2026-05-02T19:44:31Z</time></trkpt>
<trkpt lat="50.720560" lon="3.724075"><time>2026-05-02T19:54:31Z</time></trkpt>
<trkpt lat="50.720869" lon="3.723080"><time>2026-05-02T20:04:31Z</time></trkpt>
<trkpt lat="50.721553" lon="3.721711"><time>2026-05-02T20:14:31Z</time></trkpt>
</trkseg></trk>
<trk>
<name>hezwd10</name>
<cmt>r</cmt>
<desc>Wodecq Chemin n°10 Vieux Moulins / Quatre Chemins / Long Chemin / Vert Marais / Lanterne / Trieu à Staques</desc>
<link href="https://chemins.be/wodecq/chemin/10"/><trkseg>
<trkpt lat="50.721553" lon="3.721711"><time>2026-05-02T20:14:31Z</time></trkpt>
<trkpt lat="50.722901" lon="3.719301"><time>2026-05-02T20:24:31Z</time></trkpt>
<trkpt lat="50.723390" lon="3.717155"><time>2026-05-02T20:34:31Z</time></trkpt>
<trkpt lat="50.723010" lon="3.714924"><time>2026-05-02T20:44:31Z</time></trkpt>
<trkpt lat="50.722907" lon="3.713750"><time>2026-05-02T20:54:31Z</time></trkpt>
<trkpt lat="50.722610" lon="3.710366"><time>2026-05-02T21:04:31Z</time></trkpt>
<trkpt lat="50.722711" lon="3.708315"><time>2026-05-02T21:14:31Z</time></trkpt>
<trkpt lat="50.723356" lon="3.702628"><time>2026-05-02T21:24:31Z</time></trkpt>
<trkpt lat="50.723308" lon="3.700542"><time>2026-05-02T21:34:31Z</time></trkpt>
<trkpt lat="50.722998" lon="3.700173"><time>2026-05-02T21:44:31Z</time></trkpt>
<trkpt lat="50.721623" lon="3.700473"><time>2026-05-02T21:54:31Z</time></trkpt>
</trkseg></trk>
<trk>
<name>hezwd10</name>
<cmt>v</cmt>
<desc>Wodecq Chemin n°10 Vieux Moulins / Quatre Chemins / Long Chemin / Vert Marais / Lanterne / Trieu à Staques</desc>
<link href="https://chemins.be/wodecq/chemin/10"/><trkseg>
<trkpt lat="50.721623" lon="3.700473"><time>2026-05-02T21:54:31Z</time></trkpt>
<trkpt lat="50.718337" lon="3.698144"><time>2026-05-02T22:04:31Z</time></trkpt>
<trkpt lat="50.716060" lon="3.694228"><time>2026-05-02T22:14:31Z</time></trkpt>
<trkpt lat="50.715551" lon="3.693895"><time>2026-05-02T22:24:31Z</time></trkpt>
<trkpt lat="50.714226" lon="3.693155"><time>2026-05-02T22:34:31Z</time></trkpt>
</trkseg>
</trk>
</gpx>